N60CG KISP-KMYR
Flight info
| Callsign | N60CG |
|---|---|
| Flight time | 2h 12m |
| Altitude | 26000 |
| Route | LONGI7 SARDI Q439 MANTA FFURR JAAWY KALDA Q131 PRONI CLARB |
| Aircraft | TBM9/L-VGDW/C |
Departure
| Time | 2026-05-04 00:16 |
|---|---|
| Airport | Long Island MacArthur Airport (KISP) |
Arrival
| Time | 2026-05-04 02:28 |
|---|---|
| Airport | Myrtle Beach International Airport (KMYR) |
| Time | Latitude | Longitude | Altitude | Speed | Heading |
|---|---|---|---|---|---|
| 2026-05-04 00:02 | 40.79820 | -73.10811 | 99 ft | 0 kts | 0° |
| 2026-05-04 00:10 | 40.79816 | -73.10811 | 99 ft | 1 kts | 0° |
| 2026-05-04 00:10 | 40.79809 | -73.10812 | 99 ft | 1 kts | 18° |
| 2026-05-04 00:10 | 40.79804 | -73.10817 | 99 ft | 1 kts | 54° |
| 2026-05-04 00:11 | 40.79808 | -73.10770 | 99 ft | 9 kts | 92° |
| 2026-05-04 00:11 | 40.79753 | -73.10720 | 98 ft | 14 kts | 179° |
| 2026-05-04 00:12 | 40.79630 | -73.10719 | 97 ft | 21 kts | 180° |
| 2026-05-04 00:12 | 40.79492 | -73.10721 | 96 ft | 18 kts | 180° |
| 2026-05-04 00:12 | 40.79381 | -73.10770 | 96 ft | 18 kts | 225° |
| 2026-05-04 00:12 | 40.79314 | -73.10914 | 95 ft | 17 kts | 246° |
| 2026-05-04 00:13 | 40.79242 | -73.11059 | 95 ft | 22 kts | 224° |
| 2026-05-04 00:13 | 40.79120 | -73.11218 | 96 ft | 27 kts | 226° |
| 2026-05-04 00:13 | 40.79039 | -73.11328 | 96 ft | 0 kts | 225° |
| 2026-05-04 00:14 | 40.79038 | -73.11328 | 96 ft | 0 kts | 225° |
| 2026-05-04 00:14 | 40.79006 | -73.11364 | 96 ft | 11 kts | 201° |
| 2026-05-04 00:14 | 40.78930 | -73.11310 | 96 ft | 14 kts | 135° |
| 2026-05-04 00:14 | 40.78889 | -73.11214 | 97 ft | 14 kts | 58° |
| 2026-05-04 00:15 | 40.79000 | -73.11074 | 96 ft | 41 kts | 44° |
| 2026-05-04 00:15 | 40.79338 | -73.10624 | 97 ft | 94 kts | 44° |
| 2026-05-04 00:15 | 40.79902 | -73.09874 | 171 ft | 129 kts | 46° |
| 2026-05-04 00:15 | 40.80535 | -73.08972 | 510 ft | 137 kts | 47° |
| 2026-05-04 00:16 | 40.81150 | -73.07990 | 918 ft | 140 kts | 52° |
| 2026-05-04 00:16 | 40.81456 | -73.06740 | 1301 ft | 149 kts | 77° |
| 2026-05-04 00:16 | 40.81675 | -73.05279 | 1438 ft | 174 kts | 76° |
| 2026-05-04 00:16 | 40.81889 | -73.03716 | 1844 ft | 176 kts | 85° |
| 2026-05-04 00:17 | 40.81509 | -73.02221 | 2269 ft | 174 kts | 136° |
| 2026-05-04 00:17 | 40.80563 | -73.01252 | 2672 ft | 173 kts | 150° |
| 2026-05-04 00:17 | 40.79579 | -73.00320 | 3078 ft | 175 kts | 149° |
| 2026-05-04 00:17 | 40.78574 | -72.99380 | 3492 ft | 178 kts | 149° |
| 2026-05-04 00:18 | 40.77534 | -72.98486 | 3935 ft | 179 kts | 157° |
| 2026-05-04 00:18 | 40.76416 | -72.97739 | 4410 ft | 181 kts | 159° |
| 2026-05-04 00:18 | 40.75299 | -72.96936 | 4882 ft | 185 kts | 156° |
| 2026-05-04 00:18 | 40.74171 | -72.96093 | 5340 ft | 188 kts | 155° |
| 2026-05-04 00:19 | 40.73026 | -72.95236 | 5801 ft | 191 kts | 156° |
| 2026-05-04 00:19 | 40.71862 | -72.94366 | 6244 ft | 195 kts | 155° |
| 2026-05-04 00:19 | 40.70673 | -72.93479 | 6675 ft | 197 kts | 155° |
| 2026-05-04 00:19 | 40.69490 | -72.92596 | 7109 ft | 199 kts | 155° |
| 2026-05-04 00:20 | 40.68274 | -72.91689 | 7542 ft | 202 kts | 155° |
| 2026-05-04 00:20 | 40.67044 | -72.90771 | 7979 ft | 204 kts | 155° |
| 2026-05-04 00:20 | 40.65794 | -72.89841 | 8431 ft | 206 kts | 154° |
| 2026-05-04 00:20 | 40.64538 | -72.88904 | 8878 ft | 209 kts | 154° |
| 2026-05-04 00:21 | 40.63262 | -72.87954 | 9327 ft | 211 kts | 154° |
| 2026-05-04 00:21 | 40.61977 | -72.86997 | 9764 ft | 213 kts | 154° |
| 2026-05-04 00:21 | 40.60677 | -72.86033 | 10006 ft | 226 kts | 153° |
| 2026-05-04 00:21 | 40.59236 | -72.84967 | 10022 ft | 248 kts | 153° |
| 2026-05-04 00:22 | 40.57703 | -72.83825 | 10192 ft | 255 kts | 153° |
| 2026-05-04 00:22 | 40.56175 | -72.82683 | 10590 ft | 250 kts | 153° |
| 2026-05-04 00:22 | 40.54586 | -72.81822 | 10909 ft | 245 kts | 173° |
| 2026-05-04 00:22 | 40.52905 | -72.81626 | 11239 ft | 237 kts | 191° |
| 2026-05-04 00:23 | 40.51332 | -72.82037 | 11562 ft | 227 kts | 208° |
| 2026-05-04 00:23 | 40.49972 | -72.82939 | 11888 ft | 217 kts | 224° |
| 2026-05-04 00:23 | 40.48846 | -72.84203 | 12204 ft | 212 kts | 233° |
| 2026-05-04 00:23 | 40.47754 | -72.85518 | 12521 ft | 213 kts | 232° |
| 2026-05-04 00:24 | 40.46660 | -72.86827 | 12850 ft | 213 kts | 232° |
| 2026-05-04 00:24 | 40.45568 | -72.88144 | 13164 ft | 213 kts | 232° |
| 2026-05-04 00:24 | 40.44476 | -72.89464 | 13481 ft | 214 kts | 231° |
| 2026-05-04 00:24 | 40.43379 | -72.90786 | 13798 ft | 214 kts | 231° |
| 2026-05-04 00:25 | 40.42279 | -72.92112 | 14077 ft | 214 kts | 231° |
| 2026-05-04 00:25 | 40.41179 | -72.93437 | 14356 ft | 215 kts | 231° |
| 2026-05-04 00:25 | 40.40077 | -72.94763 | 14645 ft | 215 kts | 231° |
| 2026-05-04 00:25 | 40.38975 | -72.96090 | 14918 ft | 215 kts | 231° |
| 2026-05-04 00:26 | 40.37868 | -72.97420 | 15203 ft | 215 kts | 231° |
| 2026-05-04 00:26 | 40.36763 | -72.98750 | 15478 ft | 216 kts | 231° |
| 2026-05-04 00:26 | 40.35652 | -73.00084 | 15761 ft | 216 kts | 231° |
| 2026-05-04 00:26 | 40.34544 | -73.01416 | 16040 ft | 216 kts | 232° |
| 2026-05-04 00:27 | 40.33448 | -73.02732 | 16315 ft | 217 kts | 232° |
| 2026-05-04 00:27 | 40.32334 | -73.04069 | 16593 ft | 217 kts | 232° |
| 2026-05-04 00:27 | 40.31221 | -73.05404 | 16874 ft | 217 kts | 232° |
| 2026-05-04 00:27 | 40.30106 | -73.06741 | 17154 ft | 217 kts | 232° |
| 2026-05-04 00:28 | 40.28989 | -73.08081 | 17421 ft | 218 kts | 232° |
| 2026-05-04 00:28 | 40.27866 | -73.09426 | 17694 ft | 218 kts | 232° |
| 2026-05-04 00:28 | 40.26741 | -73.10773 | 17973 ft | 219 kts | 232° |
| 2026-05-04 00:28 | 40.25615 | -73.12121 | 18239 ft | 219 kts | 232° |
| 2026-05-04 00:29 | 40.24489 | -73.13468 | 18486 ft | 219 kts | 232° |
| 2026-05-04 00:29 | 40.23374 | -73.14803 | 18714 ft | 220 kts | 232° |
| 2026-05-04 00:29 | 40.22242 | -73.16156 | 18952 ft | 220 kts | 232° |
| 2026-05-04 00:29 | 40.21110 | -73.17509 | 19183 ft | 221 kts | 232° |
| 2026-05-04 00:30 | 40.19974 | -73.18868 | 19416 ft | 221 kts | 232° |
| 2026-05-04 00:30 | 40.18838 | -73.20224 | 19651 ft | 221 kts | 232° |
| 2026-05-04 00:30 | 40.17701 | -73.21582 | 19891 ft | 222 kts | 232° |
| 2026-05-04 00:30 | 40.16561 | -73.22941 | 20125 ft | 222 kts | 232° |
| 2026-05-04 00:31 | 40.15433 | -73.24288 | 20353 ft | 222 kts | 232° |
| 2026-05-04 00:31 | 40.14287 | -73.25654 | 20589 ft | 223 kts | 232° |
| 2026-05-04 00:31 | 40.13141 | -73.27019 | 20817 ft | 223 kts | 232° |
| 2026-05-04 00:31 | 40.11993 | -73.28386 | 21047 ft | 223 kts | 232° |
| 2026-05-04 00:32 | 40.10843 | -73.29756 | 21281 ft | 224 kts | 232° |
| 2026-05-04 00:32 | 40.09687 | -73.31130 | 21511 ft | 224 kts | 232° |
| 2026-05-04 00:32 | 40.08532 | -73.32503 | 21733 ft | 225 kts | 232° |
| 2026-05-04 00:32 | 40.07374 | -73.33878 | 21969 ft | 225 kts | 232° |
| 2026-05-04 00:33 | 40.06212 | -73.35258 | 22191 ft | 226 kts | 232° |
| 2026-05-04 00:33 | 40.03884 | -73.38021 | 22645 ft | 226 kts | 232° |
| 2026-05-04 00:33 | 40.02718 | -73.39403 | 22869 ft | 227 kts | 232° |
| 2026-05-04 00:34 | 40.01549 | -73.40788 | 23096 ft | 227 kts | 232° |
| 2026-05-04 00:34 | 40.00379 | -73.42175 | 23314 ft | 228 kts | 232° |
| 2026-05-04 00:34 | 39.99222 | -73.43545 | 23536 ft | 228 kts | 232° |
| 2026-05-04 00:34 | 39.98046 | -73.44935 | 23724 ft | 228 kts | 232° |
| 2026-05-04 00:35 | 39.96869 | -73.46329 | 23902 ft | 229 kts | 232° |
| 2026-05-04 00:35 | 39.95689 | -73.47724 | 24080 ft | 229 kts | 232° |
| 2026-05-04 00:35 | 39.94503 | -73.49126 | 24258 ft | 230 kts | 232° |
| 2026-05-04 00:35 | 39.93315 | -73.50529 | 24436 ft | 230 kts | 232° |
| 2026-05-04 00:36 | 39.92126 | -73.51932 | 24610 ft | 231 kts | 232° |
| 2026-05-04 00:36 | 39.90935 | -73.53337 | 24790 ft | 232 kts | 231° |
| 2026-05-04 00:36 | 39.89619 | -73.54605 | 24963 ft | 240 kts | 221° |
| 2026-05-04 00:36 | 39.88130 | -73.55645 | 25131 ft | 243 kts | 219° |
| 2026-05-04 00:37 | 39.86638 | -73.56684 | 25299 ft | 243 kts | 219° |
| 2026-05-04 00:37 | 39.85145 | -73.57730 | 25480 ft | 244 kts | 219° |
| 2026-05-04 00:37 | 39.83646 | -73.58775 | 25639 ft | 245 kts | 219° |
| 2026-05-04 00:37 | 39.82144 | -73.59819 | 25811 ft | 245 kts | 219° |
| 2026-05-04 00:38 | 39.80659 | -73.60852 | 25976 ft | 246 kts | 219° |
| 2026-05-04 00:38 | 39.79134 | -73.61916 | 26002 ft | 251 kts | 219° |
| 2026-05-04 00:38 | 39.77575 | -73.63001 | 26005 ft | 257 kts | 219° |
| 2026-05-04 00:38 | 39.75986 | -73.64102 | 26011 ft | 261 kts | 219° |
| 2026-05-04 00:39 | 39.74376 | -73.65218 | 26011 ft | 264 kts | 219° |
| 2026-05-04 00:39 | 39.72749 | -73.66346 | 26015 ft | 266 kts | 219° |
| 2026-05-04 00:39 | 39.71111 | -73.67481 | 26015 ft | 268 kts | 219° |
| 2026-05-04 00:39 | 39.69460 | -73.68625 | 26016 ft | 269 kts | 219° |
| 2026-05-04 00:40 | 39.67805 | -73.69771 | 26014 ft | 270 kts | 219° |
| 2026-05-04 00:40 | 39.66144 | -73.70920 | 26018 ft | 271 kts | 219° |
| 2026-05-04 00:40 | 39.64480 | -73.72071 | 26020 ft | 271 kts | 219° |
| 2026-05-04 00:40 | 39.62812 | -73.73223 | 26018 ft | 272 kts | 219° |
| 2026-05-04 00:41 | 39.61139 | -73.74380 | 26013 ft | 272 kts | 219° |
| 2026-05-04 00:41 | 39.59490 | -73.75518 | 26013 ft | 272 kts | 219° |
| 2026-05-04 00:41 | 39.57819 | -73.76673 | 26008 ft | 272 kts | 219° |
| 2026-05-04 00:41 | 39.56142 | -73.77829 | 26007 ft | 272 kts | 219° |
| 2026-05-04 00:42 | 39.54466 | -73.78984 | 26010 ft | 272 kts | 219° |
| 2026-05-04 00:42 | 39.52794 | -73.80136 | 26011 ft | 272 kts | 219° |
| 2026-05-04 00:42 | 39.51122 | -73.81288 | 26013 ft | 272 kts | 219° |
| 2026-05-04 00:42 | 39.49450 | -73.82439 | 26014 ft | 272 kts | 219° |
| 2026-05-04 00:43 | 39.47778 | -73.83589 | 26007 ft | 272 kts | 219° |
| 2026-05-04 00:43 | 39.46107 | -73.84738 | 26015 ft | 272 kts | 219° |
| 2026-05-04 00:43 | 39.44455 | -73.85873 | 26015 ft | 272 kts | 219° |
| 2026-05-04 00:43 | 39.42766 | -73.87033 | 26014 ft | 272 kts | 219° |
| 2026-05-04 00:44 | 39.41115 | -73.88167 | 26018 ft | 272 kts | 219° |
| 2026-05-04 00:44 | 39.39446 | -73.89312 | 26017 ft | 272 kts | 219° |
| 2026-05-04 00:44 | 39.37777 | -73.90456 | 26015 ft | 271 kts | 219° |
| 2026-05-04 00:44 | 39.36106 | -73.91602 | 26021 ft | 271 kts | 219° |
| 2026-05-04 00:45 | 39.34438 | -73.92744 | 26021 ft | 271 kts | 219° |
| 2026-05-04 00:45 | 39.32782 | -73.93899 | 26011 ft | 268 kts | 222° |
| 2026-05-04 00:45 | 39.31248 | -73.95239 | 26021 ft | 264 kts | 226° |
| 2026-05-04 00:45 | 39.29739 | -73.96595 | 26021 ft | 265 kts | 225° |
| 2026-05-04 00:46 | 39.28225 | -73.97935 | 26023 ft | 264 kts | 226° |
| 2026-05-04 00:46 | 39.26713 | -73.99283 | 26024 ft | 264 kts | 226° |
| 2026-05-04 00:46 | 39.25202 | -74.00636 | 26022 ft | 264 kts | 226° |
| 2026-05-04 00:46 | 39.23694 | -74.01983 | 26019 ft | 263 kts | 226° |
| 2026-05-04 00:47 | 39.22204 | -74.03312 | 26023 ft | 263 kts | 226° |
| 2026-05-04 00:47 | 39.20699 | -74.04653 | 26019 ft | 263 kts | 226° |
| 2026-05-04 00:47 | 39.19196 | -74.05993 | 26022 ft | 263 kts | 226° |
| 2026-05-04 00:47 | 39.17691 | -74.07334 | 26020 ft | 262 kts | 226° |
| 2026-05-04 00:48 | 39.16190 | -74.08670 | 26021 ft | 262 kts | 226° |
| 2026-05-04 00:48 | 39.14691 | -74.10004 | 26023 ft | 262 kts | 226° |
| 2026-05-04 00:48 | 39.13190 | -74.11339 | 26024 ft | 262 kts | 226° |
| 2026-05-04 00:48 | 39.11694 | -74.12669 | 26025 ft | 261 kts | 226° |
| 2026-05-04 00:49 | 39.10198 | -74.13998 | 26025 ft | 261 kts | 226° |
| 2026-05-04 00:49 | 39.08707 | -74.15321 | 26027 ft | 261 kts | 226° |
| 2026-05-04 00:49 | 39.07215 | -74.16646 | 26022 ft | 261 kts | 226° |
| 2026-05-04 00:49 | 39.05720 | -74.17972 | 26028 ft | 260 kts | 226° |
| 2026-05-04 00:50 | 39.04229 | -74.19294 | 26031 ft | 260 kts | 227° |
| 2026-05-04 00:50 | 39.02740 | -74.20614 | 26028 ft | 260 kts | 227° |
| 2026-05-04 00:50 | 39.01251 | -74.21933 | 26032 ft | 260 kts | 227° |
| 2026-05-04 00:50 | 38.99762 | -74.23251 | 26032 ft | 260 kts | 227° |
| 2026-05-04 00:51 | 38.98290 | -74.24552 | 26031 ft | 260 kts | 227° |
| 2026-05-04 00:51 | 38.96800 | -74.25871 | 26032 ft | 259 kts | 227° |
| 2026-05-04 00:51 | 38.95313 | -74.27185 | 26033 ft | 259 kts | 227° |
| 2026-05-04 00:51 | 38.93823 | -74.28501 | 26036 ft | 259 kts | 227° |
| 2026-05-04 00:52 | 38.92337 | -74.29813 | 26034 ft | 259 kts | 227° |
| 2026-05-04 00:52 | 38.90848 | -74.31126 | 26038 ft | 259 kts | 227° |
| 2026-05-04 00:52 | 38.89364 | -74.32436 | 26036 ft | 259 kts | 227° |
| 2026-05-04 00:52 | 38.88383 | -74.33301 | 26038 ft | 259 kts | 227° |
| 2026-05-04 00:53 | 38.86900 | -74.34608 | 26036 ft | 259 kts | 227° |
| 2026-05-04 00:53 | 38.85416 | -74.35914 | 26039 ft | 258 kts | 227° |
| 2026-05-04 00:53 | 38.83931 | -74.37222 | 26040 ft | 258 kts | 227° |
| 2026-05-04 00:53 | 38.81966 | -74.38951 | 26042 ft | 258 kts | 227° |
| 2026-05-04 00:54 | 38.80967 | -74.39829 | 26042 ft | 258 kts | 227° |
| 2026-05-04 00:54 | 38.79485 | -74.41132 | 26040 ft | 258 kts | 227° |
| 2026-05-04 00:54 | 38.78003 | -74.42433 | 26041 ft | 258 kts | 227° |
| 2026-05-04 00:54 | 38.76518 | -74.43738 | 26042 ft | 258 kts | 227° |
| 2026-05-04 00:55 | 38.75036 | -74.45038 | 26043 ft | 258 kts | 227° |
| 2026-05-04 00:55 | 38.73553 | -74.46338 | 26049 ft | 258 kts | 227° |
| 2026-05-04 00:55 | 38.72090 | -74.47621 | 26041 ft | 258 kts | 227° |
| 2026-05-04 00:55 | 38.70607 | -74.48920 | 26041 ft | 258 kts | 228° |
| 2026-05-04 00:56 | 38.69124 | -74.50220 | 26042 ft | 258 kts | 228° |
| 2026-05-04 00:56 | 38.67640 | -74.51518 | 26043 ft | 258 kts | 228° |
| 2026-05-04 00:56 | 38.66154 | -74.52819 | 26047 ft | 258 kts | 228° |
| 2026-05-04 00:56 | 38.64668 | -74.54119 | 26048 ft | 258 kts | 228° |
| 2026-05-04 00:57 | 38.63185 | -74.55415 | 26046 ft | 258 kts | 228° |
| 2026-05-04 00:57 | 38.61700 | -74.56712 | 26050 ft | 258 kts | 228° |
| 2026-05-04 00:57 | 38.60215 | -74.58009 | 26048 ft | 259 kts | 228° |
| 2026-05-04 00:57 | 38.58726 | -74.59307 | 26049 ft | 258 kts | 228° |
| 2026-05-04 00:58 | 38.57240 | -74.60604 | 26048 ft | 259 kts | 228° |
| 2026-05-04 00:58 | 38.55751 | -74.61902 | 26048 ft | 259 kts | 228° |
| 2026-05-04 00:58 | 38.54284 | -74.63180 | 26049 ft | 259 kts | 228° |
| 2026-05-04 00:58 | 38.52776 | -74.64493 | 26048 ft | 259 kts | 228° |
| 2026-05-04 00:59 | 38.51291 | -74.65786 | 26049 ft | 259 kts | 228° |
| 2026-05-04 00:59 | 38.49819 | -74.67067 | 26045 ft | 259 kts | 228° |
| 2026-05-04 00:59 | 38.48329 | -74.68363 | 26046 ft | 259 kts | 228° |
| 2026-05-04 00:59 | 38.46836 | -74.69660 | 26044 ft | 259 kts | 228° |
| 2026-05-04 01:00 | 38.45349 | -74.70952 | 26052 ft | 259 kts | 228° |
| 2026-05-04 01:00 | 38.43855 | -74.72250 | 26049 ft | 259 kts | 228° |
| 2026-05-04 01:00 | 38.42363 | -74.73545 | 26045 ft | 259 kts | 228° |
| 2026-05-04 01:00 | 38.40870 | -74.74839 | 26055 ft | 259 kts | 228° |
| 2026-05-04 01:01 | 38.39374 | -74.76136 | 26051 ft | 259 kts | 228° |
| 2026-05-04 01:01 | 38.37885 | -74.77427 | 26050 ft | 259 kts | 228° |
| 2026-05-04 01:01 | 38.36392 | -74.78719 | 26050 ft | 259 kts | 228° |
| 2026-05-04 01:01 | 38.34899 | -74.80011 | 26058 ft | 259 kts | 228° |
| 2026-05-04 01:02 | 38.33403 | -74.81306 | 26053 ft | 259 kts | 228° |
| 2026-05-04 01:02 | 38.31927 | -74.82582 | 26054 ft | 259 kts | 228° |
| 2026-05-04 01:02 | 38.30431 | -74.83876 | 26056 ft | 259 kts | 227° |
| 2026-05-04 01:02 | 38.28938 | -74.85166 | 26057 ft | 259 kts | 227° |
| 2026-05-04 01:03 | 38.27502 | -74.86518 | 26059 ft | 253 kts | 233° |
| 2026-05-04 01:03 | 38.26228 | -74.88026 | 26062 ft | 247 kts | 238° |
| 2026-05-04 01:03 | 38.25111 | -74.89660 | 26061 ft | 242 kts | 243° |
| 2026-05-04 01:03 | 38.24138 | -74.91389 | 26059 ft | 240 kts | 245° |
| 2026-05-04 01:04 | 38.23172 | -74.93129 | 26065 ft | 240 kts | 245° |
| 2026-05-04 01:04 | 38.22205 | -74.94861 | 26065 ft | 240 kts | 245° |
| 2026-05-04 01:04 | 38.21242 | -74.96595 | 26061 ft | 240 kts | 245° |
| 2026-05-04 01:04 | 38.20279 | -74.98331 | 26063 ft | 240 kts | 245° |
| 2026-05-04 01:05 | 38.19315 | -75.00066 | 26062 ft | 240 kts | 245° |
| 2026-05-04 01:05 | 38.18353 | -75.01797 | 26068 ft | 240 kts | 245° |
| 2026-05-04 01:05 | 38.17384 | -75.03536 | 26068 ft | 241 kts | 245° |
| 2026-05-04 01:05 | 38.16418 | -75.05273 | 26068 ft | 241 kts | 245° |
| 2026-05-04 01:06 | 38.15451 | -75.07009 | 26062 ft | 241 kts | 245° |
| 2026-05-04 01:06 | 38.14484 | -75.08746 | 26064 ft | 241 kts | 245° |
| 2026-05-04 01:06 | 38.13524 | -75.10467 | 26063 ft | 241 kts | 245° |
| 2026-05-04 01:06 | 38.12555 | -75.12205 | 26064 ft | 241 kts | 245° |
| 2026-05-04 01:07 | 38.11585 | -75.13942 | 26064 ft | 241 kts | 244° |
| 2026-05-04 01:07 | 38.10613 | -75.15683 | 26060 ft | 241 kts | 244° |
| 2026-05-04 01:07 | 38.09642 | -75.17421 | 26061 ft | 241 kts | 244° |
| 2026-05-04 01:07 | 38.08671 | -75.19158 | 26063 ft | 241 kts | 244° |
| 2026-05-04 01:08 | 38.07700 | -75.20895 | 26062 ft | 241 kts | 244° |
| 2026-05-04 01:08 | 38.06728 | -75.22634 | 26068 ft | 241 kts | 244° |
| 2026-05-04 01:08 | 38.05752 | -75.24375 | 26075 ft | 242 kts | 244° |
| 2026-05-04 01:08 | 38.04791 | -75.26091 | 26079 ft | 242 kts | 244° |
| 2026-05-04 01:09 | 38.03814 | -75.27833 | 26073 ft | 242 kts | 244° |
| 2026-05-04 01:09 | 38.02837 | -75.29576 | 26071 ft | 242 kts | 244° |
| 2026-05-04 01:09 | 38.01864 | -75.31311 | 26081 ft | 242 kts | 244° |
| 2026-05-04 01:09 | 38.00888 | -75.33049 | 26081 ft | 242 kts | 244° |
| 2026-05-04 01:10 | 37.99910 | -75.34792 | 26080 ft | 242 kts | 244° |
| 2026-05-04 01:10 | 37.98933 | -75.36531 | 26082 ft | 242 kts | 244° |
| 2026-05-04 01:10 | 37.97955 | -75.38270 | 26085 ft | 242 kts | 244° |
| 2026-05-04 01:10 | 37.96977 | -75.40008 | 26091 ft | 242 kts | 244° |
| 2026-05-04 01:11 | 37.95997 | -75.41751 | 26087 ft | 242 kts | 244° |
| 2026-05-04 01:11 | 37.95017 | -75.43490 | 26085 ft | 242 kts | 244° |
| 2026-05-04 01:11 | 37.94037 | -75.45230 | 26082 ft | 243 kts | 244° |
| 2026-05-04 01:11 | 37.93057 | -75.46969 | 26085 ft | 243 kts | 244° |
| 2026-05-04 01:12 | 37.92075 | -75.48710 | 26081 ft | 243 kts | 244° |
| 2026-05-04 01:12 | 37.91093 | -75.50451 | 26082 ft | 243 kts | 244° |
| 2026-05-04 01:12 | 37.90123 | -75.52168 | 26082 ft | 243 kts | 244° |
| 2026-05-04 01:12 | 37.89135 | -75.53917 | 26084 ft | 243 kts | 244° |
| 2026-05-04 01:13 | 37.88151 | -75.55658 | 26085 ft | 243 kts | 244° |
| 2026-05-04 01:13 | 37.87165 | -75.57402 | 26083 ft | 243 kts | 244° |
| 2026-05-04 01:13 | 37.86167 | -75.59130 | 26081 ft | 245 kts | 241° |
| 2026-05-04 01:13 | 37.85012 | -75.60758 | 26080 ft | 251 kts | 236° |
| 2026-05-04 01:14 | 37.83704 | -75.62242 | 26076 ft | 256 kts | 230° |
| 2026-05-04 01:14 | 37.82232 | -75.63566 | 26077 ft | 262 kts | 224° |
| 2026-05-04 01:14 | 37.80614 | -75.64692 | 26074 ft | 269 kts | 218° |
| 2026-05-04 01:14 | 37.78918 | -75.65649 | 26074 ft | 271 kts | 217° |
| 2026-05-04 01:15 | 37.77204 | -75.66627 | 26076 ft | 270 kts | 217° |
| 2026-05-04 01:15 | 37.75492 | -75.67609 | 26074 ft | 270 kts | 217° |
| 2026-05-04 01:15 | 37.73774 | -75.68588 | 26072 ft | 270 kts | 217° |
| 2026-05-04 01:15 | 37.72058 | -75.69562 | 26077 ft | 270 kts | 217° |
| 2026-05-04 01:16 | 37.70343 | -75.70536 | 26073 ft | 270 kts | 217° |
| 2026-05-04 01:16 | 37.68629 | -75.71510 | 26074 ft | 270 kts | 217° |
| 2026-05-04 01:16 | 37.66916 | -75.72483 | 26074 ft | 270 kts | 217° |
| 2026-05-04 01:16 | 37.65200 | -75.73458 | 26078 ft | 270 kts | 217° |
| 2026-05-04 01:17 | 37.63489 | -75.74429 | 26073 ft | 270 kts | 217° |
| 2026-05-04 01:17 | 37.61776 | -75.75399 | 26075 ft | 269 kts | 217° |
| 2026-05-04 01:17 | 37.60067 | -75.76368 | 26075 ft | 269 kts | 217° |
| 2026-05-04 01:17 | 37.58358 | -75.77336 | 26078 ft | 269 kts | 217° |
| 2026-05-04 01:18 | 37.56650 | -75.78304 | 26080 ft | 269 kts | 217° |
| 2026-05-04 01:18 | 37.54943 | -75.79270 | 26082 ft | 269 kts | 217° |
| 2026-05-04 01:18 | 37.53254 | -75.80225 | 26090 ft | 269 kts | 217° |
| 2026-05-04 01:18 | 37.51548 | -75.81190 | 26091 ft | 269 kts | 217° |
| 2026-05-04 01:19 | 37.49838 | -75.82156 | 26088 ft | 269 kts | 217° |
| 2026-05-04 01:19 | 37.48137 | -75.83117 | 26090 ft | 269 kts | 217° |
| 2026-05-04 01:19 | 37.46429 | -75.84081 | 26088 ft | 268 kts | 217° |
| 2026-05-04 01:19 | 37.44724 | -75.85043 | 26089 ft | 268 kts | 217° |
| 2026-05-04 01:20 | 37.43023 | -75.86002 | 26086 ft | 268 kts | 217° |
| 2026-05-04 01:20 | 37.41321 | -75.86961 | 26091 ft | 268 kts | 217° |
| 2026-05-04 01:20 | 37.39620 | -75.87920 | 26088 ft | 268 kts | 217° |
| 2026-05-04 01:20 | 37.37919 | -75.88878 | 26090 ft | 268 kts | 216° |
| 2026-05-04 01:21 | 37.36214 | -75.89838 | 26090 ft | 268 kts | 216° |
| 2026-05-04 01:21 | 37.34509 | -75.90797 | 26093 ft | 268 kts | 216° |
| 2026-05-04 01:21 | 37.32806 | -75.91754 | 26093 ft | 268 kts | 216° |
| 2026-05-04 01:21 | 37.31104 | -75.92711 | 26091 ft | 268 kts | 216° |
| 2026-05-04 01:22 | 37.29401 | -75.93667 | 26093 ft | 268 kts | 216° |
| 2026-05-04 01:22 | 37.27698 | -75.94623 | 26096 ft | 268 kts | 216° |
| 2026-05-04 01:22 | 37.26014 | -75.95569 | 26096 ft | 268 kts | 216° |
| 2026-05-04 01:22 | 37.24310 | -75.96524 | 26095 ft | 268 kts | 216° |
| 2026-05-04 01:23 | 37.22605 | -75.97480 | 26098 ft | 268 kts | 216° |
| 2026-05-04 01:23 | 37.20899 | -75.98436 | 26097 ft | 269 kts | 216° |
| 2026-05-04 01:23 | 37.19189 | -75.99393 | 26095 ft | 269 kts | 216° |
| 2026-05-04 01:23 | 37.17482 | -76.00350 | 26095 ft | 269 kts | 216° |
| 2026-05-04 01:24 | 37.15774 | -76.01304 | 26094 ft | 269 kts | 216° |
| 2026-05-04 01:24 | 37.14068 | -76.02258 | 26091 ft | 268 kts | 216° |
| 2026-05-04 01:24 | 37.12359 | -76.03215 | 26091 ft | 268 kts | 217° |
| 2026-05-04 01:24 | 37.10734 | -76.04292 | 26096 ft | 263 kts | 221° |
| 2026-05-04 01:25 | 37.09152 | -76.05397 | 26093 ft | 264 kts | 220° |
| 2026-05-04 01:25 | 37.07542 | -76.06497 | 26095 ft | 263 kts | 220° |
| 2026-05-04 01:25 | 37.05936 | -76.07603 | 26094 ft | 263 kts | 220° |
| 2026-05-04 01:25 | 37.04330 | -76.08715 | 26092 ft | 263 kts | 220° |
| 2026-05-04 01:26 | 37.02727 | -76.09823 | 26094 ft | 263 kts | 220° |
| 2026-05-04 01:26 | 37.01118 | -76.10932 | 26097 ft | 263 kts | 220° |
| 2026-05-04 01:26 | 36.99513 | -76.12040 | 26089 ft | 263 kts | 220° |
| 2026-05-04 01:26 | 36.97908 | -76.13146 | 26090 ft | 263 kts | 220° |
| 2026-05-04 01:27 | 36.96303 | -76.14253 | 26097 ft | 263 kts | 220° |
| 2026-05-04 01:27 | 36.94698 | -76.15358 | 26088 ft | 263 kts | 220° |
| 2026-05-04 01:27 | 36.93089 | -76.16466 | 26090 ft | 263 kts | 220° |
| 2026-05-04 01:27 | 36.91483 | -76.17570 | 26092 ft | 264 kts | 220° |
| 2026-05-04 01:28 | 36.89877 | -76.18675 | 26098 ft | 264 kts | 220° |
| 2026-05-04 01:28 | 36.88270 | -76.19780 | 26095 ft | 264 kts | 220° |
| 2026-05-04 01:28 | 36.86663 | -76.20884 | 26091 ft | 264 kts | 220° |
| 2026-05-04 01:28 | 36.85052 | -76.21991 | 26093 ft | 264 kts | 220° |
| 2026-05-04 01:29 | 36.83462 | -76.23082 | 26091 ft | 264 kts | 220° |
| 2026-05-04 01:29 | 36.81838 | -76.24201 | 25847 ft | 272 kts | 220° |
| 2026-05-04 01:29 | 36.80152 | -76.25363 | 25505 ft | 280 kts | 219° |
| 2026-05-04 01:29 | 36.78423 | -76.26545 | 25171 ft | 286 kts | 219° |
| 2026-05-04 01:30 | 36.76662 | -76.27746 | 24865 ft | 290 kts | 219° |
| 2026-05-04 01:30 | 36.74883 | -76.28963 | 24541 ft | 293 kts | 219° |
| 2026-05-04 01:30 | 36.73091 | -76.30189 | 24215 ft | 295 kts | 218° |
| 2026-05-04 01:30 | 36.71286 | -76.31423 | 23889 ft | 296 kts | 218° |
| 2026-05-04 01:31 | 36.69477 | -76.32660 | 23544 ft | 296 kts | 218° |
| 2026-05-04 01:31 | 36.67673 | -76.33891 | 23158 ft | 296 kts | 218° |
| 2026-05-04 01:31 | 36.65862 | -76.35127 | 22774 ft | 296 kts | 218° |
| 2026-05-04 01:31 | 36.64082 | -76.36342 | 22406 ft | 296 kts | 218° |
| 2026-05-04 01:32 | 36.62280 | -76.37572 | 22033 ft | 295 kts | 217° |
| 2026-05-04 01:32 | 36.60476 | -76.38801 | 21665 ft | 294 kts | 217° |
| 2026-05-04 01:32 | 36.58681 | -76.40024 | 21303 ft | 294 kts | 217° |
| 2026-05-04 01:32 | 36.56885 | -76.41247 | 20942 ft | 293 kts | 217° |
| 2026-05-04 01:33 | 36.55093 | -76.42467 | 20583 ft | 293 kts | 217° |
| 2026-05-04 01:33 | 36.53308 | -76.43681 | 20232 ft | 292 kts | 217° |
| 2026-05-04 01:33 | 36.51530 | -76.44890 | 19878 ft | 292 kts | 216° |
| 2026-05-04 01:33 | 36.49752 | -76.46099 | 19533 ft | 291 kts | 216° |
| 2026-05-04 01:34 | 36.47977 | -76.47305 | 19193 ft | 291 kts | 216° |
| 2026-05-04 01:34 | 36.46200 | -76.48511 | 18861 ft | 290 kts | 216° |
| 2026-05-04 01:34 | 36.44430 | -76.49712 | 18528 ft | 290 kts | 216° |
| 2026-05-04 01:34 | 36.42681 | -76.50897 | 18174 ft | 289 kts | 216° |
| 2026-05-04 01:35 | 36.40933 | -76.52078 | 18100 ft | 280 kts | 216° |
| 2026-05-04 01:35 | 36.39244 | -76.53221 | 18098 ft | 273 kts | 216° |
| 2026-05-04 01:35 | 36.37593 | -76.54343 | 18088 ft | 268 kts | 216° |
| 2026-05-04 01:35 | 36.35963 | -76.55446 | 18088 ft | 265 kts | 216° |
| 2026-05-04 01:36 | 36.34348 | -76.56539 | 18087 ft | 263 kts | 216° |
| 2026-05-04 01:36 | 36.32741 | -76.57627 | 18098 ft | 262 kts | 216° |
| 2026-05-04 01:36 | 36.31144 | -76.58707 | 18096 ft | 261 kts | 216° |
| 2026-05-04 01:36 | 36.29551 | -76.59781 | 18098 ft | 260 kts | 216° |
| 2026-05-04 01:37 | 36.27961 | -76.60856 | 18102 ft | 260 kts | 216° |
| 2026-05-04 01:37 | 36.26373 | -76.61927 | 18102 ft | 260 kts | 216° |
| 2026-05-04 01:37 | 36.24787 | -76.62998 | 18101 ft | 260 kts | 216° |
| 2026-05-04 01:37 | 36.23200 | -76.64068 | 18105 ft | 260 kts | 216° |
| 2026-05-04 01:38 | 36.21627 | -76.65126 | 18108 ft | 259 kts | 216° |
| 2026-05-04 01:38 | 36.20043 | -76.66197 | 18106 ft | 260 kts | 216° |
| 2026-05-04 01:38 | 36.18456 | -76.67265 | 18109 ft | 260 kts | 216° |
| 2026-05-04 01:38 | 36.16866 | -76.68334 | 18113 ft | 259 kts | 216° |
| 2026-05-04 01:39 | 36.15281 | -76.69398 | 18113 ft | 259 kts | 216° |
| 2026-05-04 01:39 | 36.13696 | -76.70465 | 18111 ft | 259 kts | 216° |
| 2026-05-04 01:39 | 36.12112 | -76.71530 | 18115 ft | 259 kts | 216° |
| 2026-05-04 01:39 | 36.10525 | -76.72596 | 18113 ft | 259 kts | 216° |
| 2026-05-04 01:40 | 36.09475 | -76.73301 | 18114 ft | 259 kts | 216° |
| 2026-05-04 01:40 | 36.07892 | -76.74364 | 18115 ft | 259 kts | 216° |
| 2026-05-04 01:40 | 36.06304 | -76.75429 | 18113 ft | 259 kts | 216° |
| 2026-05-04 01:40 | 36.04719 | -76.76492 | 18112 ft | 259 kts | 216° |
| 2026-05-04 01:41 | 36.03128 | -76.77558 | 18112 ft | 260 kts | 216° |
| 2026-05-04 01:41 | 36.01545 | -76.78618 | 18111 ft | 259 kts | 216° |
| 2026-05-04 01:41 | 35.99961 | -76.79681 | 18110 ft | 259 kts | 216° |
| 2026-05-04 01:41 | 35.98371 | -76.80743 | 18109 ft | 259 kts | 216° |
| 2026-05-04 01:42 | 35.96788 | -76.81802 | 18106 ft | 259 kts | 216° |
| 2026-05-04 01:42 | 35.95204 | -76.82861 | 18110 ft | 259 kts | 216° |
| 2026-05-04 01:42 | 35.93622 | -76.83920 | 18103 ft | 259 kts | 216° |
| 2026-05-04 01:42 | 35.92034 | -76.84980 | 18110 ft | 259 kts | 216° |
| 2026-05-04 01:43 | 35.90437 | -76.86017 | 18104 ft | 260 kts | 214° |
| 2026-05-04 01:43 | 35.88814 | -76.87011 | 18105 ft | 261 kts | 214° |
| 2026-05-04 01:43 | 35.87214 | -76.87999 | 18106 ft | 260 kts | 214° |
| 2026-05-04 01:43 | 35.85589 | -76.89007 | 18106 ft | 260 kts | 214° |
| 2026-05-04 01:44 | 35.83971 | -76.90005 | 18110 ft | 260 kts | 214° |
| 2026-05-04 01:44 | 35.82353 | -76.91002 | 18109 ft | 260 kts | 214° |
| 2026-05-04 01:44 | 35.80731 | -76.92001 | 18112 ft | 260 kts | 214° |
| 2026-05-04 01:44 | 35.79111 | -76.92998 | 18112 ft | 260 kts | 214° |
| 2026-05-04 01:45 | 35.77484 | -76.93999 | 18113 ft | 260 kts | 214° |
| 2026-05-04 01:45 | 35.75887 | -76.94983 | 18120 ft | 260 kts | 214° |
| 2026-05-04 01:45 | 35.72649 | -76.96974 | 18128 ft | 260 kts | 214° |
| 2026-05-04 01:46 | 35.71030 | -76.97970 | 18133 ft | 260 kts | 214° |
| 2026-05-04 01:46 | 35.69406 | -76.98966 | 18133 ft | 260 kts | 214° |
| 2026-05-04 01:46 | 35.67789 | -76.99958 | 18137 ft | 260 kts | 214° |
| 2026-05-04 01:46 | 35.66163 | -77.00958 | 18137 ft | 260 kts | 214° |
| 2026-05-04 01:47 | 35.64545 | -77.01949 | 18138 ft | 260 kts | 214° |
| 2026-05-04 01:47 | 35.62924 | -77.02942 | 18139 ft | 260 kts | 214° |
| 2026-05-04 01:47 | 35.61304 | -77.03936 | 18144 ft | 261 kts | 214° |
| 2026-05-04 01:47 | 35.59680 | -77.04930 | 18136 ft | 261 kts | 214° |
| 2026-05-04 01:48 | 35.58054 | -77.05926 | 18143 ft | 260 kts | 214° |
| 2026-05-04 01:48 | 35.56435 | -77.06916 | 18137 ft | 261 kts | 214° |
| 2026-05-04 01:48 | 35.54810 | -77.07910 | 18140 ft | 261 kts | 214° |
| 2026-05-04 01:48 | 35.53183 | -77.08908 | 18138 ft | 261 kts | 214° |
| 2026-05-04 01:49 | 35.51576 | -77.09888 | 18142 ft | 261 kts | 214° |
| 2026-05-04 01:49 | 35.49948 | -77.10881 | 18141 ft | 261 kts | 214° |
| 2026-05-04 01:49 | 35.48325 | -77.11874 | 18137 ft | 261 kts | 214° |
| 2026-05-04 01:49 | 35.46698 | -77.12865 | 18137 ft | 260 kts | 214° |
| 2026-05-04 01:50 | 35.45076 | -77.13855 | 18134 ft | 260 kts | 214° |
| 2026-05-04 01:50 | 35.43451 | -77.14846 | 18135 ft | 260 kts | 214° |
| 2026-05-04 01:50 | 35.41829 | -77.15834 | 18130 ft | 260 kts | 214° |
| 2026-05-04 01:50 | 35.40226 | -77.16811 | 18128 ft | 260 kts | 214° |
| 2026-05-04 01:51 | 35.38602 | -77.17799 | 18123 ft | 260 kts | 214° |
| 2026-05-04 01:51 | 35.36981 | -77.18786 | 18117 ft | 260 kts | 214° |
| 2026-05-04 01:51 | 35.35363 | -77.19771 | 18119 ft | 260 kts | 214° |
| 2026-05-04 01:51 | 35.33731 | -77.20763 | 18117 ft | 260 kts | 214° |
| 2026-05-04 01:52 | 35.32112 | -77.21748 | 18117 ft | 260 kts | 214° |
| 2026-05-04 01:52 | 35.30490 | -77.22731 | 18111 ft | 260 kts | 214° |
| 2026-05-04 01:52 | 35.28864 | -77.23715 | 18112 ft | 260 kts | 214° |
| 2026-05-04 01:52 | 35.27239 | -77.24692 | 18110 ft | 260 kts | 214° |
| 2026-05-04 01:53 | 35.25611 | -77.25669 | 18116 ft | 260 kts | 214° |
| 2026-05-04 01:53 | 35.24008 | -77.26632 | 18112 ft | 260 kts | 214° |
| 2026-05-04 01:53 | 35.22399 | -77.27634 | 18114 ft | 260 kts | 214° |
| 2026-05-04 01:53 | 35.20781 | -77.28630 | 18114 ft | 260 kts | 214° |
| 2026-05-04 01:54 | 35.19153 | -77.29610 | 18114 ft | 260 kts | 214° |
| 2026-05-04 01:54 | 35.17534 | -77.30585 | 18115 ft | 260 kts | 214° |
| 2026-05-04 01:54 | 35.15909 | -77.31570 | 18116 ft | 260 kts | 214° |
| 2026-05-04 01:54 | 35.14306 | -77.32541 | 18116 ft | 260 kts | 214° |
| 2026-05-04 01:55 | 35.12665 | -77.33532 | 18117 ft | 260 kts | 214° |
| 2026-05-04 01:55 | 35.11046 | -77.34510 | 18115 ft | 260 kts | 214° |
| 2026-05-04 01:55 | 35.09423 | -77.35491 | 18114 ft | 260 kts | 214° |
| 2026-05-04 01:55 | 35.07824 | -77.36456 | 18113 ft | 260 kts | 214° |
| 2026-05-04 01:56 | 35.06201 | -77.37436 | 18115 ft | 260 kts | 214° |
| 2026-05-04 01:56 | 35.04582 | -77.38413 | 18113 ft | 260 kts | 214° |
| 2026-05-04 01:56 | 35.02961 | -77.39388 | 18117 ft | 260 kts | 214° |
| 2026-05-04 01:56 | 35.01343 | -77.40365 | 18115 ft | 259 kts | 214° |
| 2026-05-04 01:57 | 34.99722 | -77.41342 | 18117 ft | 259 kts | 214° |
| 2026-05-04 01:57 | 34.98107 | -77.42314 | 18121 ft | 259 kts | 214° |
| 2026-05-04 01:57 | 34.96490 | -77.43287 | 18117 ft | 259 kts | 214° |
| 2026-05-04 01:57 | 34.94875 | -77.44259 | 18119 ft | 259 kts | 214° |
| 2026-05-04 01:58 | 34.93260 | -77.45230 | 18120 ft | 259 kts | 214° |
| 2026-05-04 01:58 | 34.91663 | -77.46190 | 18122 ft | 259 kts | 214° |
| 2026-05-04 01:58 | 34.90048 | -77.47160 | 18118 ft | 259 kts | 214° |
| 2026-05-04 01:58 | 34.88431 | -77.48131 | 18123 ft | 259 kts | 214° |
| 2026-05-04 01:59 | 34.86814 | -77.49102 | 18120 ft | 259 kts | 214° |
| 2026-05-04 01:59 | 34.85197 | -77.50072 | 18123 ft | 259 kts | 214° |
| 2026-05-04 01:59 | 34.83577 | -77.51044 | 18121 ft | 259 kts | 213° |
| 2026-05-04 01:59 | 34.81963 | -77.52010 | 18120 ft | 259 kts | 214° |
| 2026-05-04 02:00 | 34.80346 | -77.52979 | 18119 ft | 259 kts | 213° |
| 2026-05-04 02:00 | 34.78728 | -77.53948 | 18123 ft | 259 kts | 213° |
| 2026-05-04 02:00 | 34.77111 | -77.54917 | 18123 ft | 259 kts | 213° |
| 2026-05-04 02:00 | 34.75498 | -77.55883 | 18119 ft | 258 kts | 214° |
| 2026-05-04 02:01 | 34.73884 | -77.56848 | 18122 ft | 259 kts | 213° |
| 2026-05-04 02:01 | 34.72286 | -77.57803 | 18125 ft | 259 kts | 213° |
| 2026-05-04 02:01 | 34.70669 | -77.58769 | 18114 ft | 259 kts | 213° |
| 2026-05-04 02:01 | 34.69050 | -77.59736 | 18116 ft | 259 kts | 213° |
| 2026-05-04 02:02 | 34.67431 | -77.60704 | 18118 ft | 259 kts | 213° |
| 2026-05-04 02:02 | 34.65812 | -77.61670 | 18116 ft | 259 kts | 213° |
| 2026-05-04 02:02 | 34.64194 | -77.62635 | 18116 ft | 259 kts | 213° |
| 2026-05-04 02:02 | 34.62575 | -77.63598 | 18115 ft | 259 kts | 213° |
| 2026-05-04 02:03 | 34.60958 | -77.64566 | 18113 ft | 259 kts | 213° |
| 2026-05-04 02:03 | 34.59340 | -77.65529 | 18114 ft | 259 kts | 213° |
| 2026-05-04 02:03 | 34.57724 | -77.66494 | 18108 ft | 258 kts | 214° |
| 2026-05-04 02:03 | 34.56248 | -77.67672 | 18118 ft | 252 kts | 225° |
| 2026-05-04 02:04 | 34.55009 | -77.69148 | 18109 ft | 247 kts | 235° |
| 2026-05-04 02:04 | 34.53950 | -77.70781 | 18120 ft | 246 kts | 236° |
| 2026-05-04 02:04 | 34.52875 | -77.72402 | 18119 ft | 247 kts | 236° |
| 2026-05-04 02:04 | 34.51803 | -77.74026 | 18128 ft | 247 kts | 236° |
| 2026-05-04 02:05 | 34.50731 | -77.75657 | 18123 ft | 247 kts | 236° |
| 2026-05-04 02:05 | 34.49674 | -77.77268 | 18132 ft | 247 kts | 236° |
| 2026-05-04 02:05 | 34.48602 | -77.78896 | 18129 ft | 247 kts | 236° |
| 2026-05-04 02:05 | 34.47528 | -77.80529 | 18136 ft | 247 kts | 236° |
| 2026-05-04 02:06 | 34.46455 | -77.82158 | 18136 ft | 247 kts | 236° |
| 2026-05-04 02:06 | 34.45380 | -77.83792 | 18055 ft | 250 kts | 236° |
| 2026-05-04 02:06 | 34.44274 | -77.85472 | 17762 ft | 259 kts | 236° |
| 2026-05-04 02:06 | 34.43149 | -77.87177 | 17424 ft | 265 kts | 236° |
| 2026-05-04 02:07 | 34.41989 | -77.88935 | 17077 ft | 269 kts | 236° |
| 2026-05-04 02:07 | 34.40808 | -77.90723 | 16717 ft | 272 kts | 235° |
| 2026-05-04 02:07 | 34.39617 | -77.92526 | 16354 ft | 275 kts | 235° |
| 2026-05-04 02:07 | 34.38421 | -77.94336 | 16001 ft | 275 kts | 235° |
| 2026-05-04 02:08 | 34.37211 | -77.96167 | 15507 ft | 279 kts | 235° |
| 2026-05-04 02:08 | 34.35996 | -77.98002 | 15119 ft | 279 kts | 235° |
| 2026-05-04 02:08 | 34.34784 | -77.99834 | 14749 ft | 278 kts | 235° |
| 2026-05-04 02:08 | 34.33573 | -78.01661 | 14389 ft | 278 kts | 235° |
| 2026-05-04 02:09 | 34.32361 | -78.03494 | 14012 ft | 278 kts | 235° |
| 2026-05-04 02:09 | 34.31150 | -78.05321 | 13618 ft | 278 kts | 235° |
| 2026-05-04 02:09 | 34.29941 | -78.07142 | 13246 ft | 277 kts | 235° |
| 2026-05-04 02:09 | 34.28741 | -78.08953 | 12880 ft | 276 kts | 235° |
| 2026-05-04 02:10 | 34.27552 | -78.10741 | 12524 ft | 276 kts | 235° |
| 2026-05-04 02:10 | 34.26351 | -78.12551 | 12159 ft | 276 kts | 235° |
| 2026-05-04 02:10 | 34.25151 | -78.14361 | 11781 ft | 276 kts | 235° |
| 2026-05-04 02:10 | 34.23949 | -78.16165 | 11423 ft | 275 kts | 235° |
| 2026-05-04 02:11 | 34.22750 | -78.17972 | 11057 ft | 276 kts | 235° |
| 2026-05-04 02:11 | 34.21548 | -78.19774 | 10696 ft | 275 kts | 235° |
| 2026-05-04 02:11 | 34.20347 | -78.21576 | 10333 ft | 276 kts | 235° |
| 2026-05-04 02:11 | 34.19140 | -78.23386 | 9959 ft | 277 kts | 235° |
| 2026-05-04 02:12 | 34.17937 | -78.25195 | 9580 ft | 274 kts | 235° |
| 2026-05-04 02:12 | 34.16753 | -78.26978 | 9217 ft | 270 kts | 235° |
| 2026-05-04 02:12 | 34.15580 | -78.28738 | 8860 ft | 268 kts | 234° |
| 2026-05-04 02:12 | 34.14403 | -78.30481 | 8512 ft | 267 kts | 234° |
| 2026-05-04 02:13 | 34.13249 | -78.32210 | 8158 ft | 267 kts | 235° |
| 2026-05-04 02:13 | 34.12092 | -78.33962 | 7813 ft | 266 kts | 234° |
| 2026-05-04 02:13 | 34.10932 | -78.35698 | 7459 ft | 266 kts | 234° |
| 2026-05-04 02:13 | 34.09763 | -78.37430 | 7106 ft | 266 kts | 234° |
| 2026-05-04 02:14 | 34.08604 | -78.39161 | 6757 ft | 264 kts | 234° |
| 2026-05-04 02:14 | 34.07470 | -78.40891 | 6401 ft | 261 kts | 237° |
| 2026-05-04 02:14 | 34.06548 | -78.42761 | 6047 ft | 258 kts | 244° |
| 2026-05-04 02:14 | 34.05738 | -78.44680 | 5717 ft | 256 kts | 245° |
| 2026-05-04 02:15 | 34.04946 | -78.46597 | 5395 ft | 254 kts | 245° |
| 2026-05-04 02:15 | 34.04162 | -78.48503 | 5069 ft | 253 kts | 245° |
| 2026-05-04 02:15 | 34.03411 | -78.50400 | 4983 ft | 245 kts | 247° |
| 2026-05-04 02:15 | 34.02819 | -78.52256 | 4981 ft | 237 kts | 251° |
| 2026-05-04 02:16 | 34.02286 | -78.54107 | 5004 ft | 232 kts | 252° |
| 2026-05-04 02:16 | 34.01756 | -78.55950 | 4994 ft | 232 kts | 252° |
| 2026-05-04 02:16 | 34.01226 | -78.57784 | 5012 ft | 233 kts | 252° |
| 2026-05-04 02:16 | 34.00698 | -78.59630 | 4999 ft | 233 kts | 252° |
| 2026-05-04 02:17 | 34.00169 | -78.61461 | 4999 ft | 230 kts | 252° |
| 2026-05-04 02:17 | 33.99645 | -78.63278 | 4998 ft | 229 kts | 251° |
| 2026-05-04 02:17 | 33.99126 | -78.65092 | 5003 ft | 228 kts | 252° |
| 2026-05-04 02:17 | 33.98613 | -78.66902 | 5002 ft | 229 kts | 251° |
| 2026-05-04 02:18 | 33.98090 | -78.68736 | 4812 ft | 234 kts | 252° |
| 2026-05-04 02:18 | 33.97562 | -78.70610 | 4597 ft | 237 kts | 252° |
| 2026-05-04 02:18 | 33.97032 | -78.72491 | 4393 ft | 238 kts | 252° |
| 2026-05-04 02:18 | 33.96503 | -78.74388 | 4207 ft | 239 kts | 252° |
| 2026-05-04 02:19 | 33.95963 | -78.76297 | 3995 ft | 241 kts | 252° |
| 2026-05-04 02:19 | 33.95428 | -78.78178 | 3807 ft | 241 kts | 251° |
| 2026-05-04 02:19 | 33.94884 | -78.80098 | 3605 ft | 241 kts | 252° |
| 2026-05-04 02:19 | 33.94347 | -78.82014 | 3400 ft | 241 kts | 252° |
| 2026-05-04 02:20 | 33.93815 | -78.83920 | 3209 ft | 240 kts | 251° |
| 2026-05-04 02:20 | 33.93287 | -78.85842 | 2995 ft | 242 kts | 252° |
| 2026-05-04 02:20 | 33.92776 | -78.87757 | 2783 ft | 238 kts | 252° |
| 2026-05-04 02:20 | 33.92265 | -78.89637 | 2594 ft | 233 kts | 251° |
| 2026-05-04 02:21 | 33.91784 | -78.91464 | 2384 ft | 222 kts | 251° |
| 2026-05-04 02:21 | 33.91321 | -78.93195 | 2188 ft | 214 kts | 251° |
| 2026-05-04 02:21 | 33.90889 | -78.94860 | 2033 ft | 205 kts | 251° |
| 2026-05-04 02:21 | 33.90499 | -78.96459 | 2012 ft | 190 kts | 251° |
| 2026-05-04 02:22 | 33.89811 | -78.97701 | 2011 ft | 177 kts | 218° |
| 2026-05-04 02:22 | 33.88743 | -78.98331 | 2018 ft | 170 kts | 188° |
| 2026-05-04 02:22 | 33.87613 | -78.97991 | 2012 ft | 172 kts | 154° |
| 2026-05-04 02:22 | 33.86491 | -78.97521 | 2029 ft | 173 kts | 169° |
| 2026-05-04 02:23 | 33.85303 | -78.97197 | 2021 ft | 176 kts | 169° |
| 2026-05-04 02:23 | 33.84118 | -78.96873 | 2019 ft | 171 kts | 170° |
| 2026-05-04 02:23 | 33.82961 | -78.96596 | 2027 ft | 171 kts | 170° |
| 2026-05-04 02:23 | 33.81784 | -78.96291 | 2021 ft | 175 kts | 170° |
| 2026-05-04 02:24 | 33.80582 | -78.95999 | 2034 ft | 179 kts | 171° |
| 2026-05-04 02:24 | 33.79392 | -78.95687 | 2048 ft | 165 kts | 171° |
| 2026-05-04 02:24 | 33.78334 | -78.95435 | 1897 ft | 149 kts | 171° |
| 2026-05-04 02:24 | 33.77376 | -78.95179 | 1687 ft | 133 kts | 172° |
| 2026-05-04 02:25 | 33.76502 | -78.94972 | 1521 ft | 127 kts | 171° |
| 2026-05-04 02:25 | 33.75640 | -78.94751 | 1350 ft | 125 kts | 171° |
| 2026-05-04 02:25 | 33.74790 | -78.94544 | 1185 ft | 123 kts | 171° |
| 2026-05-04 02:25 | 33.73978 | -78.94332 | 1028 ft | 118 kts | 171° |
| 2026-05-04 02:26 | 33.73204 | -78.94140 | 876 ft | 102 kts | 171° |
| 2026-05-04 02:26 | 33.72534 | -78.93968 | 739 ft | 98 kts | 173° |
| 2026-05-04 02:26 | 33.71870 | -78.93793 | 584 ft | 96 kts | 169° |
| 2026-05-04 02:26 | 33.71220 | -78.93627 | 463 ft | 96 kts | 170° |
| 2026-05-04 02:27 | 33.70794 | -78.93529 | 378 ft | 92 kts | 171° |
| 2026-05-04 02:27 | 33.70173 | -78.93378 | 289 ft | 92 kts | 169° |
| 2026-05-04 02:27 | 33.69541 | -78.93218 | 157 ft | 94 kts | 168° |
| 2026-05-04 02:27 | 33.68930 | -78.93061 | 47 ft | 84 kts | 169° |
| 2026-05-04 02:28 | 33.68419 | -78.92944 | 25 ft | 65 kts | 168° |
| 2026-05-04 02:28 | 33.68025 | -78.92845 | 27 ft | 51 kts | 169° |
| 2026-05-04 02:28 | 33.67707 | -78.92760 | 27 ft | 37 kts | 167° |
| 2026-05-04 02:28 | 33.67510 | -78.92714 | 25 ft | 21 kts | 172° |
| 2026-05-04 02:29 | 33.67416 | -78.92782 | 28 ft | 20 kts | 252° |
| 2026-05-04 02:29 | 33.67379 | -78.92971 | 29 ft | 26 kts | 259° |
| 2026-05-04 02:29 | 33.67346 | -78.93189 | 31 ft | 22 kts | 258° |
| 2026-05-04 02:29 | 33.67325 | -78.93309 | 31 ft | 10 kts | 277° |
| 2026-05-04 02:30 | 33.67354 | -78.93367 | 31 ft | 6 kts | 330° |
| 2026-05-04 02:30 | 33.67361 | -78.93371 | 31 ft | 0 kts | 338° |